Impacts TAF Board INFO
FOR SITUATIONAL AWARENESS. NOT TO BE USED FOR FLIGHT PLANNING PURPOSES.
IDs:

KMIA - Miami Intl, FL, US

Issued at 2059 UTC 14 Aug 2018
Updated at 2203 UTC 14 Aug 2018
Potential Impact None Slight Moderate High
Time2153Z 14/23Z 15/00Z 15/01Z 15/02Z 15/03Z 15/04Z 15/05Z 15/06Z 15/07Z 15/08Z 15/09Z 15/10Z 15/11Z>>
Type OBS PRVL PRVL PRVL PRVL PRVL PRVL PRVL PRVL PRVL PRVL PRVL PRVL PRVL
VIS 10 >6 >6 >6 >6 >6 >6 >6 >6 >6 >6 >6 >6 >6
CIG 250 -- -- -- -- -- -- -- -- -- -- -- -- --
Cover BKN SCT SCT SCT SCT SCT SCT SCT SCT SCT SCT SCT SCT SCT
FltCat VFR VFR VFR VFR VFR VFR VFR VFR VFR VFR VFR VFR VFR VFR
WX -- -- -- -- -- -- -- -- -- -- -- -- -- --
WDir 110 110 110 90 90 90 VRB VRB VRB VRB VRB VRB VRB VRB
WSpd 10 9 9 6 6 6 3 3 3 3 3 3 3 3
WGst -- -- -- -- -- -- -- -- -- -- -- -- -- --

Raw TAF
KMIA 142059Z 1421/1524 11009KT P6SM SCT040
  FM150100 09006KT P6SM FEW050 SCT250
  FM150400 VRB03KT P6SM SCT250
  FM151400 11010KT P6SM SCT035 SCT250


Raw METAR
KMIA 142153Z 11010KT 10SM FEW035 FEW130 BKN250 30/23 A3003 RMK AO2 SLP169 CB DSNT SE T03000228
KMIA 142053Z COR 11009KT 10SM SCT040 SCT130 BKN250 31/23 A3003 RMK AO2 SLP167 T03110233 58019
KMIA 141953Z 16008G15KT 10SM SCT036 SCT140 BKN250 31/23 A3004 RMK AO2 SLP174 T03110228

METAR Board
Radar Display
Forecast Discussion

FOR SITUATIONAL AWARENESS. NOT TO BE USED FOR FLIGHT PLANNING PURPOSES.